KFCS/FCS METAR and TAF weather

Enter ICAO airport designator
Station Type Date Time Source
KFCS METAR 2020/04/05 22:58 UTC NOAA

KFCS 052258Z AUTO 17010G15KT 10SM CLR 20/M09 A2974 RMK AO2 SLP057 T02011092 $


Station Type Date Time Source
KFCS Decoded METAR 2020/04/05 22:58 UTC NOAA

Fort Carson, CO, United States (KFCS) 38-42N 104-46W 1789M
Apr 05, 2020 - 06:58 PM EDT / 2020.04.05 2258 UTC
Wind: from the S (170 degrees) at 12 MPH (10 KT) gusting to 17 MPH (15 KT):0
Visibility: 10 mile(s):0
Sky conditions: clear
Temperature: 68.2 F (20.1 C)
Dew Point: 15.4 F (-9.2 C)
Relative Humidity: 12%
Pressure (altimeter): 29.74 in. Hg (1007 hPa)
ob: KFCS 052258Z AUTO 17010G15KT 10SM CLR 20/M09 A2974 RMK AO2 SLP057 T02011092
cycle: 23

Station Type Date Time Source
KFCS TAF 2020/04/05 21:15 UTC NOAA

TAF KFCS 052100Z 0521/0703 21015G20KT 9999 SCT110 QNH2971INS
BECMG 0603/0604 30006KT 9999 SKC QNH2981INS
BECMG 0616/0617 23012G18KT 9999 SKC QNH2980INS TX21/0522Z TN03/0613Z

Example: see airport list